Weather at Brustem Airfield Sint Truiden

Public forecast

Using degrees Celsius for public forecast. Weather courtesy of forecast.io.

Closest aviation weather report (METAR) to Brustem Airfield Sint Truiden

Closest report is Liège Airport, 13.1 nm (24.2 km) SE. Retrieved 2021/08/05 10:50 UTC (16 minutes ago):

EBLG 051050Z 30003KT 270V360 9999 SCT030 19/13 Q1009 NOSIG

Closest aviation forecast (TAF) to Brustem Airfield Sint Truiden

Closest forecast is Liège Airport, 13.1 nm (24.2 km) SE. Retrieved 2021/08/05 06:27 UTC (5 hours ago):

TAF EBLG 050500Z 0506/0612 VRB03KT 9999 SCT030 PROB30 TEMPO 0506/0507 4500 -SHRA BR PROB30 TEMPO 0513/0517 VRB13KT 4000 SHRA BECMG 0514/0516 23010KT BECMG 0519/0522 17006KT PROB40 TEMPO 0523/0602 4500 RA SHRA TEMPO 0603/0612 SHRA BKN014TCU BECMG 0607/0609 23013KT PROB30 TEMPO 0609/0612 23015G25KT 4000 SHRA BKN014CB